Latest Weather Observations for Albion Park

IDN60801

Issued at 3:02 am EST Monday 20 April 2015 (issued every 30 minutes, with the page automatically refreshed every 10 minutes)

About weather observations | Map of weather stations | Latest weather observations for NSW | Other Formats
Station Details ID: 068241 Name: WOLLONGONG AIRPORT Lat: -34.56 Lon: 150.79 Height: 8.0 m
Data from the previous 72 hours. | See also: Recent months at Albion Park
Date/Time
EST
Temp
°C
App
Temp
°C
Dew
Point
Rel
Hum
%
Delta-T
°C
Wind Press
QNH
hPa
Press
MSL
hPa
Rain
since 9 am
mm
Dir
 
Spd
km/h
Gust
km/h
Spd
kts
Gust
kts
20/03:00am 12.3 6.1 9.9 85 1.2 SSW 33 59 18 32 1025.2 1025.2 3.0
20/02:33am 12.6 6.3 9.6 82 1.5 SSW 33 59 18 32 1024.6 1024.6 2.8
20/02:30am 12.4 6.0 9.4 82 1.5 SSW 33 50 18 27 1024.6 1024.6 2.8
20/02:26am 12.5 6.3 9.3 81 1.6 SSW 32 50 17 27 1025.1 1025.1 2.8
20/02:00am 12.9 6.5 9.4 79 1.8 SW 33 48 18 26 1025.9 1025.9 2.8
20/01:51am 12.8 7.4 9.6 81 1.6 SSW 28 54 15 29 1025.9 - 2.8
20/01:49am 12.8 7.4 9.6 81 1.6 SSW 28 54 15 29 1025.9 1025.9 2.8
20/01:30am 12.6 6.8 9.4 81 1.6 SW 30 43 16 23 1025.9 1025.9 2.8
20/01:00am 12.4 6.0 9.4 82 1.5 SSW 33 52 18 28 1026.0 1026.0 2.8
20/12:33am 12.5 7.0 9.1 80 1.7 SSW 28 48 15 26 1026.2 - 2.6
20/12:31am 12.5 7.0 9.1 80 1.7 SSW 28 48 15 26 1026.2 1026.2 2.6
20/12:30am 12.6 6.7 9.2 80 1.7 SSW 30 41 16 22 1026.3 1026.3 2.6
20/12:09am 12.7 6.3 9.2 79 1.8 SSW 33 52 18 28 1026.5 - 2.6
20/12:07am 12.7 6.3 9.2 79 1.8 SSW 33 52 18 28 1026.5 1026.5 2.6
20/12:00am 12.9 6.5 9.5 80 1.7 SSW 33 43 18 23 1026.3 1026.3 2.6
 
Date/Time
EST
Temp
°C
App
Temp
°C
Dew
Point
Rel
Hum
%
Delta-T
°C
Wind Press
QNH
hPa
Press
MSL
hPa
Rain
since 9 am
mm
Dir
 
Spd
km/h
Gust
km/h
Spd
kts
Gust
kts
19/11:31pm 12.7 7.0 9.9 83 1.4 SSW 30 54 16 29 1026.3 - 2.6
19/11:30pm 12.6 7.3 9.8 83 1.4 SSW 28 54 15 29 1026.4 1026.4 2.6
19/11:13pm 13.0 7.7 9.8 81 1.6 SSW 28 46 15 25 1026.4 - 2.6
19/11:11pm 13.0 7.7 9.8 81 1.6 SSW 28 46 15 25 1026.4 1026.4 2.6
19/11:00pm 12.9 9.2 10.1 83 1.4 SSW 20 28 11 15 1026.2 1026.2 2.6
19/10:39pm 12.9 7.4 10.4 85 1.3 SSW 30 48 16 26 1026.5 - 2.6
19/10:37pm 12.9 7.4 10.4 85 1.3 SSW 30 48 16 26 1026.5 1026.5 2.6
19/10:30pm 13.0 7.1 10.4 84 1.3 SSW 32 46 17 25 1026.7 1026.7 2.6
19/10:12pm 12.8 7.7 10.5 86 1.2 SSW 28 48 15 26 1026.6 1026.6 2.4
19/10:00pm 12.7 7.6 10.6 87 1.1 SSW 28 41 15 22 1026.3 1026.3 2.2
19/09:30pm 13.0 7.4 10.0 82 1.5 SSW 30 52 16 28 1026.2 1026.2 1.4
19/09:29pm 13.2 7.9 10.0 81 1.6 SSW 28 52 15 28 1026.2 - 1.4
19/09:27pm 13.2 7.9 10.0 81 1.6 SSW 28 52 15 28 1026.2 1026.2 1.4
19/09:00pm 13.3 9.1 9.9 80 1.7 SSW 22 32 12 17 1025.7 1025.7 1.0
19/08:30pm 13.6 10.3 10.8 83 1.5 SSW 19 28 10 15 1025.4 1025.4 0.8
19/08:00pm 13.5 10.5 10.7 83 1.5 SSW 17 24 9 13 1025.1 1025.1 0.4
19/07:30pm 13.0 7.4 10.2 83 1.4 S 30 43 16 23 1024.5 1024.5 0.4
19/07:00pm 13.0 7.4 10.2 83 1.4 SSW 30 43 16 23 1024.4 1024.4 0.2
19/06:30pm 13.4 6.6 9.1 75 2.2 SSW 35 57 19 31 1024.2 1024.2 0.0
19/06:09pm 13.4 6.7 9.5 77 2.0 SSW 35 56 19 30 1023.7 - 0.0
19/06:07pm 13.4 6.7 9.5 77 2.0 SSW 35 56 19 30 1023.7 1023.7 0.0
19/06:00pm 13.6 7.2 9.3 75 2.2 SSW 33 48 18 26 1023.7 1023.7 0.0
19/05:56pm 13.7 8.2 9.2 74 2.3 SSW 28 46 15 25 1023.6 - 0.0
19/05:54pm 13.7 8.2 9.2 74 2.3 SSW 28 46 15 25 1023.6 1023.6 0.0
19/05:30pm 13.8 7.6 9.3 74 2.3 SSW 32 46 17 25 1023.4 1023.4 0.0
19/05:14pm 14.1 7.9 9.3 73 2.5 SSW 32 59 17 32 1023.2 - 0.0
19/05:12pm 14.1 7.9 9.3 73 2.4 SSW 32 59 17 32 1023.2 1023.2 0.0
19/05:00pm 14.2 7.9 9.8 75 2.3 SSW 33 50 18 27 1022.9 1022.9 0.0
19/04:30pm 15.2 9.3 10.4 73 2.5 S 32 44 17 24 1022.1 1022.1 0.0
19/04:00pm 15.5 10.4 10.7 73 2.5 S 28 41 15 22 1021.6 1021.6 0.0
19/03:30pm 16.1 10.8 11.1 72 2.7 S 30 43 16 23 1021.4 1021.4 0.0
19/03:16pm 16.2 11.2 10.9 71 2.8 S 28 50 15 27 1021.0 - 0.0
19/03:14pm 16.2 11.2 10.9 71 2.8 S 28 50 15 27 1021.0 1021.0 0.0
19/03:00pm 16.6 11.4 11.5 72 2.8 S 30 41 16 22 1020.8 1020.8 0.0
19/02:30pm 17.1 13.4 12.6 75 2.5 SSE 24 37 13 20 1020.6 1020.6 0.0
19/02:00pm 17.4 14.6 13.1 76 2.4 SSE 20 35 11 19 1020.3 1020.3 0.0
19/01:30pm 18.2 17.0 14.1 77 2.3 SSE 13 19 7 10 1020.3 1020.3 0.0
19/01:00pm 17.5 15.1 13.8 79 2.1 S 19 26 10 14 1020.4 1020.4 0.0
19/12:52pm 17.1 15.0 13.6 80 2.0 S 17 26 9 14 1020.3 1020.3 0.0
19/12:30pm 17.2 15.2 13.9 81 1.9 S 17 20 9 11 1020.4 1020.4 0.0
19/12:15pm 17.6 14.9 13.5 77 2.3 S 20 26 11 14 1020.3 - 0.0
19/12:10pm 17.7 15.2 13.4 76 2.4 S 19 26 10 14 1020.2 1020.2 0.0
19/12:00pm 18.0 15.4 13.3 74 2.6 S 19 24 10 13 1020.1 1020.1 0.0
19/11:30am 18.6 15.7 14.1 75 2.6 S 22 32 12 17 1020.2 1020.2 0.0
19/11:00am 19.6 17.1 14.2 71 3.1 S 20 28 11 15 1019.8 1019.8 0.0
19/10:30am 20.1 16.4 14.0 68 3.5 S 26 35 14 19 1019.5 1019.5 0.0
19/10:00am 20.6 18.6 12.6 60 4.5 W 15 24 8 13 1018.9 1018.8 0.0
19/09:30am 20.1 17.0 11.6 58 4.7 W 19 26 10 14 1018.7 1018.7 0.0
19/09:00am 19.3 15.2 11.6 61 4.2 W 24 32 13 17 1018.5 1018.5 10.2
19/08:30am 18.5 15.1 11.3 63 3.9 W 20 26 11 14 1018.1 1018.1 10.2
19/08:00am 17.8 14.1 11.6 67 3.4 W 22 30 12 16 1017.8 1017.8 10.2
19/07:30am 17.1 13.8 11.6 70 3.0 W 20 28 11 15 1017.2 1017.2 10.2
19/07:00am 15.9 12.9 12.6 81 1.8 WSW 20 26 11 14 1016.6 1016.6 10.2
19/06:30am 15.3 14.2 14.2 93 0.6 WSW 13 15 7 8 1016.2 1016.2 10.2
19/06:00am 16.3 16.1 14.7 90 0.9 SSW 9 15 5 8 1015.3 1015.3 10.2
19/05:30am 17.3 16.0 13.6 79 2.1 NW 13 17 7 9 1015.0 1015.0 10.2
19/05:00am 18.0 15.8 14.3 79 2.1 W 19 26 10 14 1014.4 1014.4 10.2
19/04:30am 17.7 17.1 14.6 82 1.8 WSW 11 20 6 11 1013.9 1013.9 10.2
19/04:00am 16.9 17.6 15.6 92 0.8 WSW 6 9 3 5 1013.8 1013.8 10.2
19/03:30am 18.0 19.3 17.0 94 0.6 WSW 6 7 3 4 1013.6 1013.6 10.2
19/03:00am 18.0 19.6 17.0 94 0.6 WSW 4 11 2 6 1013.4 1013.4 10.2
19/02:30am 18.5 19.3 17.3 93 0.7 NW 9 11 5 6 1013.1 1013.1 10.2
19/02:00am 18.4 20.7 17.8 96 0.4 SW 2 7 1 4 1013.3 1013.3 10.2
19/01:30am 18.5 19.9 17.8 96 0.4 SW 7 11 4 6 1013.4 1013.4 10.2
19/01:00am 18.8 20.5 18.1 96 0.4 WSW 6 9 3 5 1013.9 1013.9 10.2
19/12:30am 19.4 20.2 18.1 92 0.8 N 11 15 6 8 1013.6 1013.6 10.2
19/12:00am 18.7 20.4 18.4 98 0.2 WNW 7 9 4 5 1013.9 1013.9 10.2
 
Date/Time
EST
Temp
°C
App
Temp
°C
Dew
Point
Rel
Hum
%
Delta-T
°C
Wind Press
QNH
hPa
Press
MSL
hPa
Rain
since 9 am
mm
Dir
 
Spd
km/h
Gust
km/h
Spd
kts
Gust
kts
18/11:30pm 19.1 20.6 18.8 98 0.2 NE 9 13 5 7 1013.9 1013.9 10.0
18/11:00pm 19.0 19.8 18.2 95 0.5 N 11 13 6 7 1013.9 1013.9 10.0
18/10:43pm 19.0 22.0 18.5 97 0.3 CALM 0 0 0 0 1014.2 - 9.8
18/10:30pm 19.2 21.8 18.5 96 0.4 NNW 2 6 1 3 1014.4 1014.4 9.4
18/10:25pm 19.2 21.5 18.5 96 0.4 NNW 4 6 2 3 1014.4 - 9.2
18/10:04pm 19.3 20.6 18.5 95 0.5 N 9 11 5 6 1014.1 - 8.8
18/10:03pm 19.3 20.6 18.5 95 0.5 NNW 9 11 5 6 1014.1 1014.1 8.8
18/10:00pm 19.3 20.5 18.3 94 0.6 N 9 13 5 7 1014.1 1014.1 8.6
18/09:49pm 19.4 20.2 18.2 93 0.7 N 11 13 6 7 1014.0 - 8.4
18/09:48pm 19.4 20.2 18.2 93 0.7 N 11 13 6 7 1014.0 1014.0 8.4
18/09:39pm 19.2 19.6 18.2 94 0.6 NNE 13 15 7 8 1014.2 - 7.8
18/09:37pm 19.2 20.0 18.2 94 0.6 N 11 15 6 8 1014.2 1014.2 7.8
18/09:30pm 19.6 21.5 18.6 94 0.6 W 6 11 3 6 1014.0 1014.0 7.6
18/09:00pm 19.5 20.5 17.8 90 1.0 N 9 20 5 11 1014.1 1014.1 6.0
18/08:47pm 20.6 20.3 19.1 91 0.9 SW 19 26 10 14 1014.1 - 1.6
18/08:46pm 20.6 20.3 19.1 91 0.9 WSW 19 26 10 14 1014.1 1014.1 1.6
18/08:30pm 20.9 22.3 18.7 87 1.4 WNW 9 15 5 8 1013.8 1013.8 0.6
18/08:00pm 22.1 22.0 17.9 77 2.6 N 15 19 8 10 1013.3 1013.3 0.2
18/07:30pm 22.9 24.3 17.8 73 3.2 N 7 11 4 6 1013.1 1013.1 0.0
18/07:00pm 22.8 23.7 17.5 72 3.3 NNW 9 13 5 7 1012.8 1012.8 0.0
18/06:30pm 22.8 23.7 18.3 76 2.8 N 11 15 6 8 1012.5 1012.5 0.0
18/06:00pm 21.7 25.4 20.0 90 1.1 CALM 0 0 0 0 1012.1 1012.1 0.0
18/05:30pm 22.2 25.9 19.9 87 1.5 CALM 0 0 0 0 1011.9 1011.9 0.0
18/05:00pm 22.6 25.2 20.5 88 1.4 ESE 7 9 4 5 1011.9 1011.9 0.0
18/04:30pm 23.0 26.0 20.9 88 1.4 SSE 6 7 3 4 1012.0 1012.0 0.0
18/04:00pm 23.7 27.5 21.0 85 1.8 SE 2 6 1 3 1012.3 1012.3 0.0
18/03:30pm 24.0 27.1 21.1 84 1.9 E 6 7 3 4 1012.4 1012.4 0.0
18/03:00pm 23.8 25.8 19.9 79 2.5 ENE 9 13 5 7 1012.8 1012.8 0.0
18/02:30pm 25.3 26.6 19.2 69 3.9 NNE 11 17 6 9 1012.8 1012.8 0.0
18/02:00pm 26.0 26.6 18.7 64 4.7 N 13 17 7 9 1012.9 1012.9 0.0
18/01:30pm 25.1 26.0 19.2 70 3.8 ENE 13 17 7 9 1013.1 1013.1 0.0
18/01:00pm 24.7 24.9 19.3 72 3.5 NE 17 19 9 10 1013.4 1013.4 0.0
18/12:30pm 25.8 25.8 18.2 63 4.8 NNE 15 19 8 10 1013.8 1013.8 0.0
18/12:00pm 25.1 25.4 17.8 64 4.6 NNE 13 17 7 9 1014.5 1014.5 0.0
18/11:30am 24.8 25.4 18.7 69 3.9 NNE 13 20 7 11 1014.9 1014.9 0.0
18/11:00am 24.0 23.7 18.2 70 3.6 N 17 22 9 12 1015.4 1015.4 0.0
18/10:30am 23.5 22.8 18.2 72 3.3 N 19 24 10 13 1015.6 1015.6 0.0
18/10:00am 23.5 23.6 18.4 73 3.2 N 15 22 8 12 1015.7 1015.7 0.0
18/09:30am 22.5 21.7 18.5 78 2.5 N 20 24 11 13 1015.8 1015.8 0.0
18/09:00am 22.3 22.1 18.5 79 2.4 N 17 22 9 12 1016.1 1016.1 3.4
18/08:30am 21.8 21.6 18.4 81 2.1 NNE 17 22 9 12 1016.5 1016.5 3.4
18/08:00am 21.6 22.6 18.6 83 1.9 N 11 19 6 10 1016.6 1016.6 3.4
18/07:30am 21.6 20.8 18.4 82 2.0 NW 20 28 11 15 1016.6 1016.6 3.4
18/07:00am 20.6 21.5 18.4 87 1.4 NNW 11 17 6 9 1016.4 1016.4 3.4
18/06:30am 20.2 20.7 18.3 89 1.2 NW 13 17 7 9 1016.0 1016.0 3.4
18/06:00am 20.6 21.9 18.4 87 1.4 N 9 20 5 11 1015.9 1015.9 3.4
18/05:30am 20.7 21.6 18.5 87 1.4 N 11 17 6 9 1016.0 1016.0 3.4
18/05:00am 20.7 21.4 18.8 89 1.2 NNW 13 20 7 11 1016.0 1016.0 3.4
18/04:30am 19.4 21.2 18.4 94 0.6 NE 6 9 3 5 1016.2 1016.2 3.4
18/04:00am 19.6 21.3 18.6 94 0.6 NNE 7 9 4 5 1016.3 1016.3 3.4
18/03:30am 20.3 22.0 18.4 89 1.2 NNW 7 13 4 7 1016.6 1016.6 3.4
18/03:00am 20.6 22.0 18.7 89 1.2 N 9 15 5 8 1016.9 1016.9 3.4
18/02:30am 20.8 23.2 18.7 88 1.3 NNE 4 9 2 5 1017.3 1017.3 3.4
18/02:00am 20.9 20.9 19.0 89 1.2 NNW 17 22 9 12 1017.8 1017.8 3.4
18/01:30am 20.4 22.0 19.1 92 0.8 N 9 17 5 9 1018.4 1018.4 3.4
18/01:00am 20.0 22.1 19.0 94 0.6 N 6 9 3 5 1018.7 1018.7 3.4
18/12:30am 19.7 21.6 19.0 96 0.4 NNW 7 11 4 6 1019.1 1019.1 3.4
18/12:00am 19.2 22.4 18.9 98 0.2 CALM 0 0 0 0 1019.4 1019.4 3.4
 
Date/Time
EST
Temp
°C
App
Temp
°C
Dew
Point
Rel
Hum
%
Delta-T
°C
Wind Press
QNH
hPa
Press
MSL
hPa
Rain
since 9 am
mm
Dir
 
Spd
km/h
Gust
km/h
Spd
kts
Gust
kts
17/11:58pm 19.2 22.4 18.9 98 0.2 CALM 0 0 0 0 1019.4 1019.4 3.4
17/11:30pm 19.4 21.6 19.1 98 0.2 WNW 6 7 3 4 1020.2 1020.2 3.4
17/11:00pm 19.5 21.5 19.2 98 0.2 WNW 7 9 4 5 1020.2 1020.2 3.4
17/10:30pm 19.6 21.5 18.9 96 0.4 WNW 7 7 4 4 1020.5 1020.5 3.4
17/10:00pm 19.8 21.5 18.6 93 0.7 N 7 9 4 5 1020.7 1020.7 3.4
17/09:57pm 19.7 21.4 18.5 93 0.7 N 7 9 4 5 1020.8 1020.8 3.4
17/09:40pm 19.6 20.9 18.4 93 0.7 NNE 9 11 5 6 1020.8 1020.8 3.4
17/09:30pm 19.6 21.0 18.6 94 0.6 N 9 11 5 6 1020.8 1020.8 3.4
17/09:04pm 19.7 21.1 18.7 94 0.6 N 9 11 5 6 1021.0 1021.0 3.4
17/09:00pm 19.8 21.2 18.6 93 0.7 N 9 11 5 6 1021.0 1021.0 3.4
17/08:59pm 19.8 21.2 18.6 93 0.7 N 9 11 5 6 1021.0 1021.0 3.4
17/08:30pm 20.0 21.0 18.7 92 0.8 NNE 11 17 6 9 1021.2 1021.2 3.4
17/08:00pm 20.2 20.6 19.0 93 0.8 NE 15 20 8 11 1021.2 1021.2 3.4
17/07:51pm 20.1 20.5 19.1 94 0.6 NNE 15 20 8 11 1021.2 1021.2 3.4
17/07:50pm 20.2 20.7 19.2 94 0.6 NNE 15 20 8 11 1021.2 - 3.4
17/07:34pm 20.1 20.6 19.3 95 0.5 NNE 15 24 8 13 1021.2 1021.2 3.4
17/07:33pm 20.1 20.6 19.3 95 0.5 NNE 15 24 8 13 1021.2 - 3.4
17/07:30pm 20.0 20.9 19.2 95 0.5 NNE 13 20 7 11 1021.2 1021.2 3.4
17/07:00pm 19.8 21.5 19.3 97 0.3 N 9 13 5 7 1021.0 1021.0 3.4
17/06:30pm 19.9 21.3 19.6 98 0.2 N 11 20 6 11 1020.9 1020.9 3.4
17/06:09pm 19.8 21.2 19.5 98 0.2 NE 11 15 6 8 1020.8 - 3.4
17/06:08pm 19.8 21.2 19.5 98 0.2 NE 11 15 6 8 1020.8 1020.8 3.4
17/06:00pm 19.7 21.0 19.4 98 0.2 NE 11 15 6 8 1020.7 1020.7 3.4
17/05:30pm 19.7 22.0 19.4 98 0.2 NNE 6 9 3 5 1021.2 1021.2 3.4
17/05:24pm 19.7 22.0 19.4 98 0.2 NNE 6 7 3 4 1021.1 1021.1 3.4
17/05:00pm 19.6 21.9 19.4 99 0.1 N 6 9 3 5 1021.2 1021.2 3.4
17/04:30pm 19.6 20.9 19.4 99 0.1 NE 11 13 6 7 1021.0 1021.0 3.4
17/04:00pm 19.6 20.6 19.4 99 0.1 NE 13 17 7 9 1021.0 1021.0 3.4
17/03:30pm 19.7 20.7 19.5 99 0.1 NE 13 15 7 8 1021.4 1021.4 3.4
17/03:00pm 19.6 20.6 19.4 99 0.1 NE 13 15 7 8 1021.5 1021.5 3.2
17/02:30pm 19.7 20.7 19.4 98 0.2 NE 13 17 7 9 1021.6 1021.6 2.8
17/02:00pm 19.8 20.8 19.5 98 0.2 NE 13 19 7 10 1021.7 1021.7 2.8
17/01:30pm 19.8 20.9 19.6 99 0.1 NE 13 15 7 8 1021.9 1021.9 2.8
17/01:00pm 19.6 20.6 19.4 99 0.1 NE 13 17 7 9 1022.3 1022.3 2.8
17/12:46pm 19.5 21.2 19.3 99 0.1 NNE 9 13 5 7 1022.6 - 2.8
17/12:45pm 19.5 21.2 19.3 99 0.1 NNE 9 13 5 7 1022.6 1022.6 2.8
17/12:30pm 19.3 20.5 19.1 99 0.1 NNE 11 15 6 8 1023.0 1023.0 2.8
17/12:00pm 19.4 21.6 19.1 98 0.2 SW 6 9 3 5 1023.6 1023.6 2.2
17/11:30am 19.3 22.6 19.1 99 0.1 CALM 0 0 0 0 1024.1 1024.1 1.6
17/11:07am 19.3 22.6 19.1 99 0.1 CALM 0 0 0 0 1024.5 - 1.4
17/11:06am 19.3 22.6 19.1 99 0.1 CALM 0 0 0 0 1024.5 1024.5 1.4
17/11:00am 19.3 22.2 19.1 99 0.1 SW 2 6 1 3 1024.5 1024.5 1.4
17/10:53am 19.1 21.0 18.9 99 0.1 SW 7 9 4 5 1024.6 - 1.2
17/10:51am 19.1 21.0 18.9 99 0.1 SW 7 9 4 5 1024.6 1024.6 1.2
17/10:30am 19.2 21.3 19.0 99 0.1 SW 6 7 3 4 1024.8 1024.8 1.2
17/10:26am 19.1 21.2 18.9 99 0.1 SW 6 7 3 4 1024.8 - 1.2
17/10:25am 19.1 21.2 18.9 99 0.1 SW 6 7 3 4 1024.8 1024.8 1.2
17/10:11am 19.3 21.5 19.1 99 0.1 SW 6 6 3 3 1024.7 - 1.0
17/10:10am 19.3 21.5 19.1 99 0.1 SW 6 6 3 3 1024.7 1024.7 1.0
17/10:00am 19.1 21.2 18.9 99 0.1 SW 6 7 3 4 1024.8 1024.8 0.6
17/09:41am 19.0 21.0 18.8 99 0.1 SW 6 6 3 3 1024.9 - 0.4
17/09:40am 19.0 21.0 18.8 99 0.1 SW 6 6 3 3 1024.9 1024.9 0.4
17/09:30am 19.0 21.0 18.8 99 0.1 SW 6 7 3 4 1025.0 1025.0 0.0
17/09:06am 18.9 20.9 18.7 99 0.1 SW 6 7 3 4 1025.1 - 0.0
17/09:05am 18.9 20.9 18.7 99 0.1 SW 6 7 3 4 1025.1 1025.1 0.0
17/09:00am 18.8 20.7 18.6 99 0.1 SW 6 6 3 3 1025.1 1025.1 -
17/08:43am 18.7 20.6 18.5 99 0.1 SW 6 7 3 4 1025.0 - 3.2
17/08:42am 18.7 20.6 18.5 99 0.1 SW 6 7 3 4 1025.0 1025.0 -
17/08:31am 18.7 20.4 18.5 99 0.1 SW 7 9 4 5 1025.0 - 2.8
17/08:30am 18.7 20.4 18.5 99 0.1 SW 7 9 4 5 1025.0 1025.0 -
17/08:00am 18.6 20.4 18.4 99 0.1 SSW 6 7 3 4 1024.8 1024.8 -
17/07:33am 18.7 20.4 18.5 99 0.1 SSW 7 9 4 5 1024.6 - 2.0
17/07:32am 18.7 20.4 18.5 99 0.1 SSW 7 9 4 5 1024.6 1024.6 -
17/07:30am 18.7 20.6 18.5 99 0.1 SSW 6 9 3 5 1024.6 1024.6 -
17/07:00am 18.7 20.9 18.4 98 0.2 SSW 4 7 2 4 1024.3 1024.3 -
17/06:34am 18.6 21.5 18.3 98 0.2 CALM 0 0 0 0 1023.8 - 1.8
17/06:33am 18.6 21.5 18.3 98 0.2 CALM 0 0 0 0 1023.8 1023.8 -
17/06:30am 18.6 21.5 18.3 98 0.2 CALM 0 0 0 0 1023.8 1023.8 -
17/06:15am 18.6 21.2 18.3 98 0.2 SSW 2 7 1 4 1023.8 - 1.6
17/06:14am 18.6 21.2 18.3 98 0.2 SSW 2 7 1 4 1023.8 1023.8 -
17/06:00am 18.7 20.5 18.2 97 0.3 SSW 6 7 3 4 1024.1 1024.1 -
17/05:30am 18.7 20.4 18.0 96 0.4 SSW 6 7 3 4 1023.6 1023.6 -
17/05:00am 18.8 20.5 18.0 95 0.5 SSW 6 7 3 4 1023.6 1023.6 -
17/04:30am 18.9 21.7 17.9 94 0.6 CALM 0 0 0 0 1023.3 1023.3 -
17/04:00am 19.2 20.9 18.0 93 0.7 SSW 6 7 3 4 1023.6 1023.6 -
17/03:30am 19.1 21.1 17.9 93 0.7 SSW 4 7 2 4 1023.4 1023.4 -

Other Formats:

Comma delimited format used in spreadsheet applications
http://www.bom.gov.au/fwo/IDN60801/IDN60801.95748.axf

JavaScript Object Notation format (JSON) in row-major order
http://www.bom.gov.au/fwo/IDN60801/IDN60801.95748.json